ICT,Max TemperatureF,Mean TemperatureF,Min TemperatureF,Max Dew PointF,MeanDew PointF,Min DewpointF,Max Humidity, Mean Humidity, Min Humidity, Max Sea Level PressureIn, Mean Sea Level PressureIn, Min Sea Level PressureIn, Max VisibilityMiles, Mean VisibilityMiles, Min VisibilityMiles, Max Wind SpeedMPH, Mean Wind SpeedMPH, Max Gust SpeedMPH,PrecipitationIn, CloudCover, Events, WindDirDegrees
2013-1-1,91,81,71,66,61,59,65,55,32,29.98,29.89,29.83,6,6,5,12,8,,0.00,5,,51
2013-1-2,95,83,71,68,64,61,78,57,30,29.95,29.89,29.83,6,6,4,12,5,20,0.00,3,,17
2013-1-3,95,84,73,70,65,61,78,60,25,29.98,29.90,29.83,6,6,4,13,4,,0.00,3,,50
2013-1-4,88,80,73,66,64,63,78,61,44,29.95,29.87,29.80,6,6,5,14,5,,0.00,5,,50
2013-1-5,92,80,69,70,62,55,83,56,31,29.92,29.84,29.77,6,5,3,9,4,,0.00,6,,44
2013-1-6,93,82,71,66,62,55,83,55,27,29.95,29.85,29.80,6,6,3,12,5,,0.00,6,,35
2013-1-7,93,82,71,75,63,61,78,53,29,29.92,29.86,29.80,6,6,5,10,5,21,0.00,6,,13
2013-1-8,93,84,74,71,65,59,78,58,34,29.95,29.86,29.80,6,5,2,8,4,,0.00,4,,354
2013-1-9,91,82,73,71,65,61,88,60,38,29.92,29.84,29.77,6,4,2,8,2,17,0.00,5,,212
2013-1-10,90,82,73,77,69,57,89,68,31,29.89,29.83,29.77,6,5,2,10,4,,0.00,3,,170
2013-1-11,91,83,75,73,70,64,89,69,43,29.92,29.85,29.80,6,5,2,12,4,28,0.00,5,,116
2013-1-12,91,84,77,75,69,57,84,66,31,29.95,29.86,29.80,6,6,2,23,6,45,0.00,4,Rain-Thunderstorm,171
2013-1-13,90,82,74,74,67,55,90,64,33,29.92,29.85,29.77,6,6,3,13,4,,0.03,4,Rain,116
2013-1-14,89,81,73,72,63,55,83,56,31,29.95,29.86,29.80,6,5,4,9,3,,0.00,4,,210
2013-1-15,91,82,72,73,65,57,83,60,31,29.95,29.89,29.83,6,6,4,10,4,,0.00,4,,188
2013-1-16,93,84,74,73,68,64,87,62,39,30.01,29.92,29.86,6,5,3,9,4,,0.00,3,,58
2013-1-17,92,82,72,73,61,54,73,49,21,30.04,29.95,29.89,6,5,4,18,8,31,0.00,3,,71
2013-1-18,90,80,69,59,56,53,64,45,20,30.09,30.00,29.92,6,5,4,18,11,25,0.00,,,53
2013-1-19,89,78,68,64,58,55,83,53,31,30.06,29.97,29.89,6,5,5,17,10,29,0.00,3,,55
2013-1-20,91,80,70,63,59,55,73,52,25,30.04,29.96,29.89,6,5,4,10,4,22,0.00,,,36
2013-1-21,93,82,71,72,63,59,78,56,29,30.04,29.94,29.86,6,4,2,8,3,,0.00,3,,53
2013-1-22,92,82,72,74,67,61,83,61,33,30.01,29.93,29.83,5,3,1,13,4,20,0.00,,,91
2013-1-23,89,82,75,77,72,64,89,70,38,29.98,29.90,29.83,5,3,1,9,5,17,0.00,6,,185
2013-1-24,90,84,77,78,74,72,94,73,52,29.98,29.90,29.83,6,5,1,12,7,,0.00,6,,186
2013-1-25,89,84,78,77,73,70,85,73,55,29.95,29.88,29.83,6,6,1,16,7,40,0.24,6,Rain-Thunderstorm,185
2013-1-26,88,82,76,75,72,70,89,75,54,29.98,29.90,29.86,6,6,4,14,7,,0.00,6,Rain,173
2013-1-27,86,80,75,75,73,70,89,76,55,29.98,29.92,29.86,6,6,2,15,6,16,0.83,5,Rain,159
2013-1-28,84,79,74,75,71,70,90,79,66,30.01,29.94,29.89,6,5,1,13,6,29,0.43,6,Rain-Thunderstorm,116
2013-1-29,89,80,72,73,68,66,89,68,46,30.01,29.94,29.89,6,5,4,9,6,,0.00,6,Rain,57
2013-1-30,91,84,76,74,68,64,78,63,41,30.01,29.95,29.89,6,6,4,15,4,,0.00,6,Rain,96
2013-1-31,88,82,75,75,71,68,89,72,52,30.01,29.96,29.92,6,6,2,18,6,,0.00,6,Rain,204